Usti nad Labem, Czech Republic
Current Conditions -  °F | °C
As of 12:50 AM on Friday 28 Nov 2014 (Local Time) from EDDC Reporting Station
Broken Clouds Broken Clouds  
Wind Chill: 28°   Ceiling: 1900
Heat Index: 36°   Visibility: 6mi
Dew Point: 28°   Wind: 12mph
Humidity: 75%   Direction: 130°SE
Pressure: 29.97"   Gusts: NA
Location:  50.7°N, 14.06°E
Report Text: EDDC 272250Z 13010KT 9999 BKN019 02/M02 Q1015
Loading
Personal Weather Stations






























Interactive Weather Map New forecast layout! Learn more

10-Day Weather Forecast

Advertisements
Track Severe Weather on mobile